Time;durP1;ratioP1;P1;durP2;ratioP2;P2;SDS_P1;SDS_P2;PMS_P1;PMS_P2;Temp;Humidity;BMP_temperature;BMP_pressure;BME280_temperature;BME280_humidity;BME280_pressure;Samples;Min_cycle;Max_cycle;Signal;HPM_P1;HPM_P2
2021/11/02 00:00:56;;;;;;;3.10;0.95;;;20.00;62.00;;;;;;4970175;28;87170;-63
2021/11/02 00:03:21;;;;;;;2.25;0.98;;;20.00;62.00;;;;;;4969962;28;87430;-63
2021/11/02 00:05:47;;;;;;;2.88;0.90;;;20.00;62.00;;;;;;4951808;28;87656;-63
2021/11/02 00:08:13;;;;;;;6.05;0.88;;;20.00;62.10;;;;;;4967253;28;91240;-62
2021/11/02 00:10:40;;;;;;;3.50;1.10;;;19.90;62.10;;;;;;4968456;28;86692;-63
2021/11/02 00:13:06;;;;;;;2.08;0.98;;;19.90;62.20;;;;;;4969180;28;87744;-63
2021/11/02 00:15:33;;;;;;;2.78;0.98;;;19.90;62.20;;;;;;4969698;28;88332;-63
2021/11/02 00:18:03;;;;;;;4.13;1.50;;;20.00;62.20;;;;;;4968598;28;88642;-63
2021/11/02 00:20:30;;;;;;;5.50;1.20;;;19.90;62.20;;;;;;4968011;28;88282;-63
2021/11/02 00:22:57;;;;;;;4.18;0.98;;;19.90;62.20;;;;;;4968254;28;88279;-62
2021/11/02 00:25:25;;;;;;;2.50;0.98;;;19.90;62.20;;;;;;4968758;28;87681;-62
2021/11/02 00:27:51;;;;;;;2.75;1.10;;;19.90;62.20;;;;;;4968560;28;87591;-62
2021/11/02 00:30:18;;;;;;;2.92;0.90;;;19.90;62.20;;;;;;4969222;28;88223;-62
2021/11/02 00:32:47;;;;;;;2.97;1.20;;;19.90;62.20;;;;;;4968583;28;87491;-63
2021/11/02 00:35:14;;;;;;;2.90;1.08;;;19.90;62.20;;;;;;4969008;28;87363;-63
2021/11/02 00:37:41;;;;;;;3.95;1.00;;;19.90;62.30;;;;;;4968842;28;87852;-63
2021/11/02 00:40:08;;;;;;;2.35;0.90;;;19.90;62.30;;;;;;4967708;28;87650;-63
2021/11/02 00:42:39;;;;;;;6.15;1.33;;;19.80;62.30;;;;;;4968226;28;89206;-63
2021/11/02 00:45:10;;;;;;;2.70;1.08;;;19.80;62.40;;;;;;4968988;28;88211;-62
2021/11/02 00:47:37;;;;;;;3.38;0.95;;;19.80;62.50;;;;;;4969104;28;87196;-63
2021/11/02 00:50:11;;;;;;;2.47;0.85;;;19.80;62.50;;;;;;4969279;28;87859;-62
2021/11/02 00:52:40;;;;;;;6.15;1.10;;;19.80;62.40;;;;;;4968456;28;87797;-65
2021/11/02 00:55:10;;;;;;;3.08;1.10;;;19.80;62.50;;;;;;4968937;28;87151;-63
2021/11/02 00:57:36;;;;;;;1.63;0.77;;;19.80;62.60;;;;;;4968638;28;88101;-62
2021/11/02 01:00:07;;;;;;;2.97;1.02;;;19.80;62.60;;;;;;4968287;28;87285;-63
2021/11/02 01:02:33;;;;;;;4.28;0.80;;;19.80;62.60;;;;;;4967876;28;89066;-63
2021/11/02 01:04:58;;;;;;;2.80;1.08;;;19.80;62.60;;;;;;4968941;28;88246;-61
2021/11/02 01:07:24;;;;;;;3.58;0.98;;;19.80;62.60;;;;;;4949357;28;89159;-63
2021/11/02 01:09:50;;;;;;;2.47;1.10;;;19.80;62.60;;;;;;4966040;28;90688;-64
2021/11/02 01:12:16;;;;;;;2.20;1.40;;;19.80;62.70;;;;;;4968952;28;88234;-63
2021/11/02 01:14:43;;;;;;;3.17;0.85;;;19.80;62.70;;;;;;4969339;28;87590;-62
2021/11/02 01:17:08;;;;;;;4.40;1.08;;;19.80;62.70;;;;;;4968865;28;87231;-63
2021/11/02 01:22:02;;;;;;;3.40;1.10;;;19.70;62.60;;;;;;4971614;28;88386;-63
2021/11/02 01:24:28;;;;;;;2.30;0.90;;;19.80;62.70;;;;;;4970742;28;86857;-62
2021/11/02 01:26:54;;;;;;;5.28;0.98;;;19.70;62.70;;;;;;4971214;28;88419;-64
2021/11/02 01:29:20;;;;;;;6.20;1.08;;;19.70;62.70;;;;;;4971286;28;87673;-63
2021/11/02 01:31:46;;;;;;;2.03;0.75;;;19.70;62.70;;;;;;4971374;28;88174;-64
2021/11/02 01:34:12;;;;;;;2.13;0.80;;;19.70;62.70;;;;;;4971474;28;87701;-63
2021/11/02 01:36:39;;;;;;;3.90;0.98;;;19.70;62.80;;;;;;4971265;28;88068;-63
2021/11/02 01:39:07;;;;;;;4.32;0.95;;;19.70;62.80;;;;;;4971152;28;88035;-62
2021/11/02 01:41:34;;;;;;;6.45;0.80;;;19.70;62.80;;;;;;4972332;28;87720;-63
2021/11/02 01:44:00;;;;;;;3.22;1.10;;;19.70;62.80;;;;;;4971624;28;87939;-64
2021/11/02 01:46:33;;;;;;;3.38;0.90;;;19.60;62.80;;;;;;4971250;28;87519;-63
2021/11/02 01:49:00;;;;;;;3.15;1.20;;;19.70;62.90;;;;;;4971328;28;87276;-64
2021/11/02 01:51:29;;;;;;;3.70;0.93;;;19.70;62.90;;;;;;4970646;28;87486;-63
2021/11/02 01:53:55;;;;;;;3.97;1.10;;;19.70;62.90;;;;;;4949274;28;88036;-63
2021/11/02 01:56:21;;;;;;;1.88;0.90;;;19.70;62.90;;;;;;4970898;28;88844;-63
2021/11/02 01:58:50;;;;;;;3.47;0.90;;;19.60;62.90;;;;;;4970064;28;91528;-63
2021/11/02 02:01:45;;;;;;;3.55;0.90;;;19.70;62.90;;;;;;4953586;28;90408;-63
2021/11/02 02:05:09;;;;;;;2.63;1.05;;;19.60;62.90;;;;;;4943568;28;88403;-63
2021/11/02 02:07:46;;;;;;;3.33;0.80;;;19.60;62.90;;;;;;4900574;28;88334;-63
2021/11/02 02:10:11;;;;;;;3.13;0.70;;;19.60;62.90;;;;;;4956000;28;88008;-64
2021/11/02 02:12:56;;;;;;;4.32;0.90;;;19.60;62.90;;;;;;4971312;28;88125;-64
2021/11/02 02:15:27;;;;;;;2.08;0.90;;;19.60;63.00;;;;;;4972329;28;87288;-62
2021/11/02 02:18:00;;;;;;;2.80;0.93;;;19.60;63.00;;;;;;4971480;28;87813;-63
2021/11/02 02:20:53;;;;;;;2.92;1.08;;;19.60;63.00;;;;;;4970925;28;89602;-63
2021/11/02 02:23:38;;;;;;;2.92;0.80;;;19.60;63.00;;;;;;4970264;28;88678;-62
2021/11/02 02:26:20;;;;;;;6.22;0.90;;;19.60;63.00;;;;;;4969843;28;87833;-62
2021/11/02 02:28:49;;;;;;;3.30;1.10;;;19.50;63.00;;;;;;4969737;28;87677;-62
2021/11/02 02:31:17;;;;;;;2.15;0.82;;;19.60;63.00;;;;;;4968773;28;88548;-63
2021/11/02 02:33:48;;;;;;;3.55;1.10;;;19.60;63.10;;;;;;4953210;28;90742;-62
2021/11/02 02:36:16;;;;;;;2.75;1.10;;;19.60;63.10;;;;;;4952943;28;87732;-63
2021/11/02 02:38:45;;;;;;;3.17;1.13;;;19.50;63.00;;;;;;4970893;28;87474;-63
2021/11/02 02:41:11;;;;;;;3.25;0.90;;;19.50;63.10;;;;;;4971215;28;87476;-63
2021/11/02 02:43:41;;;;;;;6.50;1.25;;;19.50;63.10;;;;;;4970414;28;87524;-61
2021/11/02 02:46:09;;;;;;;2.70;0.80;;;19.50;63.10;;;;;;4970532;28;87671;-63
2021/11/02 02:48:35;;;;;;;3.55;0.90;;;19.50;63.10;;;;;;4970218;28;88893;-63
2021/11/02 02:51:03;;;;;;;3.53;1.00;;;19.50;63.20;;;;;;4970533;28;88188;-63
2021/11/02 02:53:30;;;;;;;1.77;0.80;;;19.50;63.20;;;;;;4970392;28;87567;-63
2021/11/02 02:56:00;;;;;;;2.28;0.73;;;19.50;63.20;;;;;;4970673;28;88093;-62
2021/11/02 02:58:34;;;;;;;2.85;0.80;;;19.50;63.20;;;;;;4970733;28;88129;-63
2021/11/02 03:00:59;;;;;;;1.83;0.80;;;19.50;63.30;;;;;;4970770;28;88092;-63
2021/11/02 03:03:26;;;;;;;1.85;0.88;;;19.50;63.30;;;;;;4969724;28;87947;-62
2021/11/02 03:05:56;;;;;;;3.17;0.82;;;19.50;63.30;;;;;;4971073;28;86444;-63
2021/11/02 03:08:22;;;;;;;2.00;0.90;;;19.50;63.30;;;;;;4970077;28;88445;-63
2021/11/02 03:10:51;;;;;;;3.85;0.90;;;19.50;63.30;;;;;;4952022;28;91634;-62
2021/11/02 03:13:19;;;;;;;2.25;0.88;;;19.50;63.30;;;;;;4969656;28;89305;-62
2021/11/02 03:15:58;;;;;;;1.80;0.95;;;19.50;63.40;;;;;;4968323;28;88406;-62
2021/11/02 03:49:23;;;;;;;2.40;0.77;;;19.40;63.60;;;;;;4969662;28;88330;-62
2021/11/02 03:57:16;;;;;;;5.15;0.77;;;19.40;63.70;;;;;;4969326;28;87839;-63
2021/11/02 04:33:02;;;;;;;3.67;0.70;;;19.30;63.80;;;;;;4968975;28;88243;-62
2021/11/02 04:35:30;;;;;;;3.58;1.00;;;19.30;63.80;;;;;;4968390;28;88820;-62
2021/11/02 04:46:25;;;;;;;2.05;0.80;;;19.30;64.20;;;;;;4968244;28;87862;-62
2021/11/02 05:46:58;;;;;;;3.85;1.00;;;19.20;64.20;;;;;;4970946;28;88364;-61
2021/11/02 06:00:19;;;;;;;7.20;0.63;;;19.20;64.20;;;;;;4961304;28;87951;-63
2021/11/02 06:05:52;;;;;;;1.65;0.63;;;19.20;64.80;;;;;;4969616;28;88616;-62
2021/11/02 06:28:43;;;;;;;3.20;0.60;;;19.10;64.20;;;;;;4969778;28;88508;-63
2021/11/02 06:31:14;;;;;;;4.47;0.80;;;19.10;64.20;;;;;;4970381;28;87417;-62
2021/11/02 06:34:08;;;;;;;1.92;0.80;;;19.10;64.20;;;;;;4971340;28;88313;-62
2021/11/02 06:39:26;;;;;;;1.95;0.68;;;19.10;64.30;;;;;;4970437;28;88111;-63
2021/11/02 07:19:51;;;;;;;3.53;0.82;;;19.10;64.70;;;;;;4944202;28;89168;-64
2021/11/02 08:48:29;;;;;;;22.58;5.72;;;19.10;66.00;;;;;;4972227;28;88053;-63
2021/11/02 08:50:56;;;;;;;21.23;4.60;;;19.10;65.90;;;;;;4953568;28;89109;-63
2021/11/02 08:53:24;;;;;;;19.55;5.00;;;19.10;65.80;;;;;;4972138;28;87926;-62
2021/11/02 08:55:51;;;;;;;21.50;5.25;;;19.10;65.60;;;;;;4972292;28;87226;-63
2021/11/02 08:58:25;;;;;;;20.52;5.18;;;19.10;65.50;;;;;;4971071;28;87545;-63
2021/11/02 09:00:59;;;;;;;19.92;4.90;;;19.00;65.10;;;;;;4971140;28;87573;-64
2021/11/02 09:03:49;;;;;;;21.63;4.47;;;19.00;65.20;;;;;;4952700;28;90166;-64
2021/11/02 09:06:19;;;;;;;22.27;5.30;;;19.00;65.00;;;;;;4972587;28;88024;-63
2021/11/02 09:08:50;;;;;;;15.85;4.50;;;19.00;64.90;;;;;;4971653;28;88254;-64
2021/11/02 09:11:16;;;;;;;17.73;4.15;;;19.10;64.70;;;;;;4971520;28;88439;-63
2021/11/02 09:13:47;;;;;;;18.58;3.80;;;19.00;64.60;;;;;;4969964;28;90957;-63
2021/11/02 09:16:15;;;;;;;21.52;3.83;;;19.00;64.40;;;;;;4970075;28;87649;-63
2021/11/02 09:18:45;;;;;;;19.30;4.10;;;19.10;64.50;;;;;;4972190;28;88190;-63
2021/11/02 09:21:11;;;;;;;23.10;4.55;;;19.00;64.20;;;;;;4972125;28;88775;-64
2021/11/02 09:23:42;;;;;;;12.82;3.88;;;19.00;64.20;;;;;;4971668;28;88984;-64
2021/11/02 09:26:08;;;;;;;12.70;3.72;;;19.00;64.10;;;;;;4972311;28;86649;-63
2021/11/02 09:28:34;;;;;;;14.80;3.20;;;19.00;63.90;;;;;;4972026;28;87852;-63
2021/11/02 09:31:01;;;;;;;16.80;3.97;;;19.00;63.80;;;;;;4971487;28;88540;-64
2021/11/02 09:33:27;;;;;;;17.20;3.88;;;19.00;63.80;;;;;;4970726;28;89351;-63
2021/11/02 09:36:02;;;;;;;17.17;4.15;;;19.00;63.60;;;;;;4969200;28;87664;-63
2021/11/02 09:38:57;;;;;;;17.77;3.55;;;19.00;63.50;;;;;;4969221;28;89571;-63
2021/11/02 09:41:51;;;;;;;18.48;3.92;;;19.00;63.40;;;;;;4965091;28;88309;-63
2021/11/02 09:44:46;;;;;;;12.32;3.22;;;19.00;63.40;;;;;;4971486;28;87704;-62
2021/11/02 09:47:36;;;;;;;12.18;3.85;;;19.00;63.30;;;;;;4971479;28;87853;-64
2021/11/02 09:50:29;;;;;;;10.95;2.85;;;19.00;63.20;;;;;;4972210;28;87684;-64
2021/11/02 09:53:14;;;;;;;7.93;3.13;;;19.00;63.10;;;;;;4971715;28;89154;-63
2021/11/02 09:56:17;;;;;;;12.07;3.45;;;19.00;63.10;;;;;;4971870;28;88086;-63
2021/11/02 09:59:09;;;;;;;13.32;3.30;;;19.00;63.00;;;;;;4971609;28;88112;-63
2021/11/02 10:02:10;;;;;;;8.80;2.45;;;19.00;62.90;;;;;;4970802;28;89064;-63
2021/11/02 10:05:10;;;;;;;10.63;2.35;;;19.00;62.80;;;;;;4943337;28;90548;-62
2021/11/02 10:08:00;;;;;;;9.98;2.38;;;19.00;62.80;;;;;;4950003;28;89356;-63
2021/11/02 10:10:39;;;;;;;8.65;2.78;;;19.00;62.80;;;;;;4970300;28;87271;-63
2021/11/02 10:13:09;;;;;;;9.48;3.10;;;19.00;62.80;;;;;;4970433;28;88472;-64
2021/11/02 10:15:39;;;;;;;10.32;2.30;;;19.00;62.70;;;;;;4970598;28;88545;-64
2021/11/02 10:18:33;;;;;;;5.97;2.13;;;19.00;62.60;;;;;;4970927;28;88242;-63
2021/11/02 10:21:31;;;;;;;7.63;2.60;;;19.00;62.60;;;;;;4969645;28;87428;-64
2021/11/02 10:24:34;;;;;;;5.60;2.40;;;19.00;62.50;;;;;;4970912;28;87847;-63
2021/11/02 10:27:18;;;;;;;9.18;2.38;;;19.00;62.50;;;;;;4970253;28;87757;-63
2021/11/02 10:30:03;;;;;;;7.70;2.45;;;19.00;62.40;;;;;;4970224;28;89166;-62
2021/11/02 10:32:30;;;;;;;9.10;2.70;;;19.00;62.40;;;;;;4971091;28;88123;-62
2021/11/02 10:35:02;;;;;;;7.95;2.03;;;19.00;62.40;;;;;;4970928;28;88202;-63
2021/11/02 10:37:40;;;;;;;8.60;2.10;;;19.00;62.30;;;;;;4970771;28;88494;-62
2021/11/02 10:40:20;;;;;;;7.00;2.33;;;19.00;62.30;;;;;;4969882;28;89445;-63
2021/11/02 10:43:16;;;;;;;7.45;2.15;;;19.00;62.20;;;;;;4969597;28;88036;-62
2021/11/02 10:45:55;;;;;;;9.80;2.42;;;19.00;62.20;;;;;;4970933;28;88053;-63
2021/11/02 10:48:43;;;;;;;7.50;2.42;;;19.00;62.10;;;;;;4971022;28;87553;-63
2021/11/02 10:51:26;;;;;;;6.45;1.83;;;19.00;62.00;;;;;;4969276;28;87955;-63
2021/11/02 10:54:19;;;;;;;10.25;2.65;;;18.90;61.90;;;;;;4950872;28;87475;-64
2021/11/02 10:57:15;;;;;;;4.40;1.85;;;18.90;61.80;;;;;;4969561;28;88741;-63
2021/11/02 10:59:48;;;;;;;4.45;1.65;;;18.90;61.70;;;;;;4952446;28;91578;-63
2021/11/02 11:02:28;;;;;;;5.53;2.10;;;19.00;61.70;;;;;;4969925;28;87868;-63
2021/11/02 11:04:56;;;;;;;6.40;1.90;;;18.90;61.80;;;;;;4969833;28;87810;-63
2021/11/02 11:07:22;;;;;;;4.72;1.60;;;18.90;61.90;;;;;;4970029;28;88180;-63
2021/11/02 11:09:53;;;;;;;5.68;1.73;;;18.90;61.90;;;;;;4970029;28;87885;-64
2021/11/02 11:12:20;;;;;;;6.00;1.95;;;18.90;62.00;;;;;;4969532;28;88559;-64
2021/11/02 11:14:51;;;;;;;4.97;1.30;;;18.90;62.10;;;;;;4970395;28;87480;-62
2021/11/02 11:17:21;;;;;;;7.13;1.77;;;19.00;62.10;;;;;;4950795;28;90006;-62
2021/11/02 11:20:11;;;;;;;5.18;1.80;;;19.00;62.20;;;;;;4969890;28;88230;-64
2021/11/02 11:22:50;;;;;;;7.50;1.95;;;18.90;62.10;;;;;;4968673;28;88958;-63
2021/11/02 11:25:41;;;;;;;3.67;1.52;;;19.00;62.20;;;;;;4969768;28;87884;-63
2021/11/02 11:28:13;;;;;;;7.55;1.70;;;19.00;62.20;;;;;;4969096;28;87889;-63
2021/11/02 11:30:41;;;;;;;4.47;1.83;;;19.00;62.10;;;;;;4969892;28;89093;-63
2021/11/02 11:33:12;;;;;;;6.82;1.48;;;19.00;62.10;;;;;;4969059;28;87419;-63
2021/11/02 11:35:39;;;;;;;5.20;1.67;;;19.00;62.10;;;;;;4969923;28;88048;-64
2021/11/02 11:38:08;;;;;;;4.40;1.67;;;19.00;62.10;;;;;;4969296;28;87721;-63
2021/11/02 11:40:38;;;;;;;5.85;1.55;;;19.00;62.00;;;;;;4967979;28;87660;-62
2021/11/02 11:43:09;;;;;;;4.18;1.58;;;19.00;62.10;;;;;;4949308;28;89029;-63
2021/11/02 11:45:41;;;;;;;4.50;1.30;;;18.90;61.90;;;;;;4968004;28;88356;-63
2021/11/02 11:48:21;;;;;;;5.85;1.70;;;19.00;62.00;;;;;;4969567;28;88573;-63
2021/11/02 11:50:48;;;;;;;3.78;1.33;;;18.90;61.80;;;;;;4969936;28;88261;-63
2021/11/02 11:53:24;;;;;;;7.75;1.38;;;19.00;61.90;;;;;;4969411;28;87817;-63
2021/11/02 11:56:01;;;;;;;5.65;1.40;;;18.90;61.80;;;;;;4970239;28;87518;-63
2021/11/02 11:58:26;;;;;;;4.40;1.23;;;18.90;61.70;;;;;;4968629;28;88236;-64
2021/11/02 12:01:09;;;;;;;5.50;1.80;;;18.90;61.70;;;;;;4969272;28;88286;-63
2021/11/02 12:04:02;;;;;;;6.15;1.48;;;18.90;61.70;;;;;;4968671;28;88018;-63
2021/11/02 12:06:48;;;;;;;3.88;1.20;;;18.90;61.60;;;;;;4969239;28;87446;-63
2021/11/02 12:09:22;;;;;;;3.00;1.27;;;18.90;61.60;;;;;;4968084;28;88312;-63
2021/11/02 12:11:49;;;;;;;2.75;1.00;;;18.90;61.60;;;;;;4967122;28;91189;-63
2021/11/02 12:14:26;;;;;;;2.67;1.27;;;18.90;61.60;;;;;;4968728;28;88164;-63
2021/11/02 12:16:58;;;;;;;4.30;1.30;;;18.90;61.60;;;;;;4950838;28;88342;-64
2021/11/02 12:19:34;;;;;;;3.55;1.17;;;18.90;61.80;;;;;;4957681;28;88367;-64
2021/11/02 12:22:04;;;;;;;4.32;1.63;;;19.00;61.80;;;;;;4967789;28;88971;-65
2021/11/02 12:24:33;;;;;;;2.25;1.02;;;19.00;61.90;;;;;;4968695;28;87937;-64
2021/11/02 12:27:13;;;;;;;3.38;1.20;;;19.10;61.80;;;;;;4968979;28;88633;-64
2021/11/02 12:29:41;;;;;;;4.47;1.20;;;19.20;61.80;;;;;;4967996;28;87474;-64
2021/11/02 12:32:11;;;;;;;4.32;1.02;;;19.40;61.60;;;;;;4969253;28;87347;-64
2021/11/02 12:34:51;;;;;;;4.47;1.73;;;19.40;61.40;;;;;;4967096;28;90274;-64
2021/11/02 12:37:35;;;;;;;5.07;1.00;;;19.60;61.30;;;;;;4969131;28;87491;-65
2021/11/02 12:40:19;;;;;;;3.28;1.27;;;19.70;61.20;;;;;;4965294;28;91173;-64
2021/11/02 12:42:45;;;;;;;1.77;0.80;;;19.70;60.60;;;;;;4912166;28;87611;-62
2021/11/02 12:45:12;;;;;;;3.80;1.10;;;19.80;60.20;;;;;;4983893;28;90493;-62
2021/11/02 12:47:39;;;;;;;4.13;1.05;;;19.80;60.00;;;;;;4987729;28;87897;-62
2021/11/02 12:50:06;;;;;;;2.97;1.30;;;19.90;60.10;;;;;;4987830;28;87908;-63
2021/11/02 12:52:35;;;;;;;2.60;0.65;;;19.90;60.20;;;;;;4986954;28;88313;-62
2021/11/02 12:55:07;;;;;;;3.83;1.10;;;20.00;60.20;;;;;;4988786;28;87541;-62
2021/11/02 12:57:44;;;;;;;2.70;0.73;;;20.00;60.20;;;;;;4989002;28;87431;-62
2021/11/02 13:00:19;;;;;;;3.45;1.10;;;20.00;60.20;;;;;;4987273;28;87457;-62
2021/11/02 13:02:51;;;;;;;5.07;1.20;;;20.00;60.20;;;;;;4988234;28;88035;-63
2021/11/02 13:05:22;;;;;;;5.47;1.52;;;20.00;60.20;;;;;;4988057;28;88920;-63
2021/11/02 13:08:02;;;;;;;4.43;1.25;;;20.00;60.20;;;;;;4988248;28;87839;-62
2021/11/02 13:10:34;;;;;;;5.72;1.02;;;20.00;60.20;;;;;;4988086;28;87705;-62
2021/11/02 13:13:06;;;;;;;4.20;1.00;;;20.00;60.20;;;;;;4987996;28;87682;-62
2021/11/02 13:15:47;;;;;;;3.80;1.05;;;20.00;60.20;;;;;;4988707;28;88145;-62
2021/11/02 13:18:31;;;;;;;2.67;0.75;;;20.00;60.30;;;;;;4991658;28;87868;-62
2021/11/02 13:21:15;;;;;;;;;;;20.10;60.40;;;;;;4992217;28;87661;-62
2021/11/02 13:23:43;;;;;;;4.50;1.23;;;20.10;60.50;;;;;;4992986;28;86936;-62
2021/11/02 13:26:17;;;;;;;3.13;1.10;;;20.20;60.40;;;;;;4991697;28;87520;-62
2021/11/02 13:28:43;;;;;;;2.00;0.80;;;20.20;60.30;;;;;;4991657;28;87851;-62
2021/11/02 13:31:33;;;;;;;4.22;0.85;;;20.20;60.20;;;;;;4991443;28;88484;-63
2021/11/02 13:34:04;;;;;;;4.13;1.08;;;20.30;60.30;;;;;;4991690;28;88271;-62
2021/11/02 13:36:30;;;;;;;2.70;0.98;;;20.30;60.30;;;;;;4991507;28;87682;-62
2021/11/02 13:39:16;;;;;;;5.40;0.88;;;20.30;60.30;;;;;;4992092;28;88075;-62
2021/11/02 13:41:49;;;;;;;4.75;1.00;;;20.40;60.30;;;;;;4991168;28;88048;-63
2021/11/02 13:44:16;;;;;;;3.78;0.85;;;20.40;60.20;;;;;;4991316;28;88343;-62
2021/11/02 13:46:49;;;;;;;2.22;0.73;;;20.40;60.10;;;;;;4992132;28;88018;-63
2021/11/02 13:49:16;;;;;;;2.27;0.90;;;20.50;60.10;;;;;;4991053;28;86880;-62
2021/11/02 13:51:42;;;;;;;3.83;1.27;;;20.50;60.10;;;;;;4986002;28;88416;-64
2021/11/02 13:54:09;;;;;;;2.28;0.85;;;20.50;60.20;;;;;;4987863;28;93585;-64
2021/11/02 13:56:41;;;;;;;2.83;0.90;;;20.60;60.20;;;;;;4990816;28;88868;-65
2021/11/02 13:59:08;;;;;;;3.15;0.93;;;20.60;60.30;;;;;;4972603;28;88034;-64
2021/11/02 14:01:51;;;;;;;2.65;1.08;;;20.60;60.10;;;;;;4973023;28;90179;-66
2021/11/02 14:04:22;;;;;;;4.72;1.35;;;20.60;59.80;;;;;;4988238;28;90994;-63
2021/11/02 14:07:07;;;;;;;6.50;1.25;;;20.60;59.80;;;;;;4988848;28;88094;-64
2021/11/02 14:09:36;;;;;;;3.33;1.17;;;20.60;59.80;;;;;;4990099;28;88371;-64
2021/11/02 14:12:29;;;;;;;5.25;1.38;;;20.60;59.50;;;;;;4988949;28;87608;-63
2021/11/02 14:15:10;;;;;;;2.17;1.03;;;20.60;59.40;;;;;;4989775;28;90302;-63
2021/11/02 14:17:36;;;;;;;5.85;1.20;;;20.50;59.30;;;;;;4989177;28;87886;-64
2021/11/02 14:20:03;;;;;;;2.97;0.80;;;20.50;59.20;;;;;;4989659;28;87895;-64
2021/11/02 14:23:06;;;;;;;1.80;0.82;;;20.50;59.10;;;;;;4987807;28;88443;-64
2021/11/02 14:25:38;;;;;;;2.60;0.85;;;20.50;59.10;;;;;;4947701;28;87897;-64
2021/11/02 14:28:06;;;;;;;3.10;1.10;;;20.50;59.00;;;;;;4977457;28;88051;-64
2021/11/02 14:30:31;;;;;;;1.20;0.73;;;20.50;59.00;;;;;;4990156;28;87946;-64
2021/11/02 14:33:01;;;;;;;6.60;0.88;;;20.50;59.00;;;;;;4989191;28;88201;-64
2021/11/02 14:35:40;;;;;;;1.85;0.70;;;20.50;59.00;;;;;;4988623;28;87610;-64
2021/11/02 14:38:17;;;;;;;3.90;0.93;;;20.50;59.00;;;;;;4987728;28;87373;-64
2021/11/02 14:40:49;;;;;;;2.78;1.23;;;20.50;59.00;;;;;;4989605;28;87124;-64
2021/11/02 14:43:15;;;;;;;2.83;1.00;;;20.50;59.00;;;;;;4988996;28;88116;-64
2021/11/02 14:45:44;;;;;;;4.35;0.88;;;20.50;59.00;;;;;;4989593;28;87602;-63
2021/11/02 14:48:28;;;;;;;5.15;1.00;;;20.50;59.00;;;;;;4962157;28;89839;-63
2021/11/02 14:50:55;;;;;;;3.55;0.80;;;20.50;59.00;;;;;;4989590;28;88358;-63
2021/11/02 14:53:32;;;;;;;2.85;0.77;;;20.50;59.00;;;;;;4970115;28;90164;-64
2021/11/02 14:56:06;;;;;;;3.97;0.88;;;20.40;58.90;;;;;;4989172;28;88174;-64
2021/11/02 14:58:44;;;;;;;2.50;0.93;;;20.50;59.00;;;;;;4988922;28;88252;-64
2021/11/02 15:01:16;;;;;;;2.25;0.52;;;20.40;58.90;;;;;;4988063;28;88116;-64
2021/11/02 15:04:01;;;;;;;4.43;0.82;;;20.40;58.90;;;;;;4987120;28;88422;-64
2021/11/02 15:06:38;;;;;;;3.30;0.88;;;20.40;58.90;;;;;;4987592;28;87131;-64
2021/11/02 15:09:06;;;;;;;2.92;0.90;;;20.40;58.90;;;;;;4961913;28;90075;-64
2021/11/02 15:11:33;;;;;;;1.27;0.63;;;20.40;58.90;;;;;;4989620;28;87629;-64
2021/11/02 15:14:05;;;;;;;1.90;0.63;;;20.40;58.90;;;;;;4989251;28;89371;-64
2021/11/02 15:16:31;;;;;;;1.50;0.60;;;20.40;58.80;;;;;;4970688;28;91130;-64
2021/11/02 15:19:05;;;;;;;1.90;0.70;;;20.40;58.90;;;;;;4989322;28;88076;-64
2021/11/02 15:21:37;;;;;;;1.10;0.55;;;20.40;58.90;;;;;;4989533;28;87429;-63
2021/11/02 15:24:17;;;;;;;2.22;0.70;;;20.40;58.90;;;;;;4988984;28;90567;-64
2021/11/02 15:26:55;;;;;;;2.00;0.82;;;20.30;58.80;;;;;;4987870;28;88125;-63
2021/11/02 15:29:26;;;;;;;1.65;0.80;;;20.40;58.80;;;;;;4988488;28;89214;-63
2021/11/02 15:32:01;;;;;;;1.50;0.57;;;20.40;58.70;;;;;;4990447;28;86445;-63
2021/11/02 15:34:53;;;;;;;4.55;0.90;;;20.50;58.70;;;;;;4989158;28;88209;-64
2021/11/02 15:37:31;;;;;;;2.65;0.90;;;20.50;58.60;;;;;;4989291;28;87644;-63
2021/11/02 15:40:02;;;;;;;4.07;0.90;;;20.60;58.50;;;;;;4986587;28;90247;-64
2021/11/02 15:42:33;;;;;;;3.88;0.90;;;20.60;58.50;;;;;;4988417;28;88152;-64
2021/11/02 15:45:36;;;;;;;2.30;0.63;;;20.60;58.40;;;;;;4988397;28;88027;-64
2021/11/02 15:48:06;;;;;;;1.42;0.75;;;20.60;59.00;;;;;;4898227;28;89856;-63
2021/11/02 15:50:34;;;;;;;4.53;1.02;;;20.60;58.40;;;;;;4978096;28;87534;-64
2021/11/02 15:53:02;;;;;;;4.47;0.70;;;20.60;58.40;;;;;;4971352;28;87601;-63
2021/11/02 15:55:29;;;;;;;1.90;0.77;;;20.60;58.40;;;;;;4989221;28;87806;-64
2021/11/02 15:57:57;;;;;;;2.40;0.88;;;20.60;58.50;;;;;;4989513;28;86791;-63
2021/11/02 16:00:37;;;;;;;2.20;0.70;;;20.70;58.50;;;;;;4989536;28;87675;-63
2021/11/02 16:03:04;;;;;;;2.80;0.70;;;20.60;58.50;;;;;;4989365;28;87951;-64
2021/11/02 16:05:32;;;;;;;1.35;0.52;;;20.60;58.60;;;;;;4987687;28;88766;-64
2021/11/02 16:08:01;;;;;;;2.90;0.60;;;20.60;58.60;;;;;;4987914;28;87972;-64
2021/11/02 16:10:29;;;;;;;2.35;0.70;;;20.60;58.60;;;;;;4984998;28;87675;-66
2021/11/02 16:12:56;;;;;;;1.90;0.52;;;20.60;58.80;;;;;;4986976;28;87464;-65
2021/11/02 16:15:28;;;;;;;3.15;0.80;;;20.60;58.70;;;;;;4986408;28;87992;-64
2021/11/02 16:17:58;;;;;;;3.22;1.00;;;20.60;58.70;;;;;;4987465;28;88586;-64
2021/11/02 16:20:36;;;;;;;1.90;0.90;;;20.60;58.80;;;;;;4987750;28;88097;-64
2021/11/02 16:23:10;;;;;;;3.08;0.95;;;20.60;58.80;;;;;;4987558;28;87577;-64
2021/11/02 16:25:44;;;;;;;3.28;0.82;;;20.60;58.90;;;;;;4987406;28;88295;-64
2021/11/02 16:28:18;;;;;;;2.47;0.90;;;20.60;58.90;;;;;;4969678;28;90952;-64
2021/11/02 16:30:51;;;;;;;2.42;0.90;;;20.60;59.00;;;;;;4929878;28;89389;-65
2021/11/02 16:33:17;;;;;;;2.42;0.85;;;20.60;59.20;;;;;;4981473;28;87751;-65
2021/11/02 16:35:45;;;;;;;4.68;1.20;;;20.70;59.20;;;;;;4984301;28;87535;-65
2021/11/02 16:38:34;;;;;;;3.50;1.00;;;20.60;59.20;;;;;;4986066;28;89333;-65
2021/11/02 16:41:16;;;;;;;2.65;0.70;;;20.70;59.10;;;;;;4985435;28;88159;-64
2021/11/02 16:43:52;;;;;;;5.53;1.27;;;20.80;59.10;;;;;;4984965;28;87657;-65
2021/11/02 16:46:30;;;;;;;4.78;0.98;;;20.80;59.00;;;;;;4984625;28;87970;-64
2021/11/02 16:49:06;;;;;;;2.08;1.17;;;20.90;58.90;;;;;;4985672;28;87509;-64
2021/11/02 16:52:08;;;;;;;3.70;1.30;;;20.90;58.80;;;;;;4986353;28;88424;-65
2021/11/02 16:54:43;;;;;;;4.10;1.25;;;20.90;58.80;;;;;;4978794;28;88497;-64
2021/11/02 16:57:22;;;;;;;3.08;0.80;;;20.90;58.80;;;;;;4989847;28;88015;-64
2021/11/02 16:59:51;;;;;;;2.22;0.82;;;20.90;58.70;;;;;;4989942;28;87782;-64
2021/11/02 17:02:27;;;;;;;6.25;1.10;;;21.00;58.80;;;;;;4971975;28;91783;-65
2021/11/02 17:05:05;;;;;;;2.80;0.70;;;20.90;58.70;;;;;;4989542;28;87905;-67
2021/11/02 17:07:45;;;;;;;2.95;0.68;;;20.90;58.70;;;;;;4985713;28;89880;-65
2021/11/02 17:10:25;;;;;;;3.08;1.00;;;20.90;58.70;;;;;;4988443;28;87989;-65
2021/11/02 17:12:56;;;;;;;2.33;0.80;;;20.90;58.80;;;;;;4988042;28;88058;-65
2021/11/02 17:15:46;;;;;;;2.47;1.13;;;20.90;58.80;;;;;;4988009;28;86950;-65
2021/11/02 17:18:15;;;;;;;2.15;0.65;;;20.90;58.80;;;;;;4980840;28;87493;-66
2021/11/02 17:20:45;;;;;;;3.55;1.25;;;20.90;58.80;;;;;;4988987;28;88222;-64
2021/11/02 17:23:12;;;;;;;4.65;0.85;;;20.90;58.90;;;;;;4969584;28;90708;-65
2021/11/02 17:25:41;;;;;;;4.55;1.15;;;20.80;58.80;;;;;;4989296;28;87623;-66
2021/11/02 17:28:08;;;;;;;4.03;0.98;;;20.80;58.80;;;;;;4988214;28;88051;-64
2021/11/02 17:30:34;;;;;;;2.97;0.90;;;20.80;58.90;;;;;;4989121;28;88010;-64
2021/11/02 17:33:01;;;;;;;3.80;1.20;;;20.80;58.90;;;;;;4989538;28;88092;-65
2021/11/02 17:35:27;;;;;;;3.83;1.33;;;20.80;58.90;;;;;;4969796;28;87379;-65
2021/11/02 17:37:56;;;;;;;3.22;0.88;;;20.80;58.90;;;;;;4970298;28;89846;-64
2021/11/02 17:40:23;;;;;;;3.28;0.90;;;20.80;59.00;;;;;;4989057;28;88045;-67
2021/11/02 17:42:52;;;;;;;3.05;0.82;;;20.80;59.00;;;;;;4989005;28;87541;-64
2021/11/02 17:45:19;;;;;;;2.47;0.80;;;20.80;59.00;;;;;;4970699;28;87832;-64
2021/11/02 17:47:45;;;;;;;1.92;0.80;;;20.80;58.90;;;;;;4988155;28;88471;-64
2021/11/02 17:50:13;;;;;;;1.35;0.60;;;20.80;58.80;;;;;;4989348;28;87756;-65
2021/11/02 17:52:39;;;;;;;2.40;0.82;;;20.90;58.80;;;;;;4988850;28;87909;-64
2021/11/02 17:55:07;;;;;;;1.88;0.65;;;20.90;58.80;;;;;;4988896;28;87642;-65
2021/11/02 17:57:36;;;;;;;3.15;0.70;;;20.80;58.70;;;;;;4987909;28;87622;-65
2021/11/02 18:00:04;;;;;;;3.28;0.75;;;20.90;58.80;;;;;;4988171;28;88401;-66
2021/11/02 18:02:31;;;;;;;5.15;1.15;;;20.90;58.80;;;;;;4988531;28;89502;-65
2021/11/02 18:04:58;;;;;;;3.55;1.17;;;20.90;58.70;;;;;;4988865;28;87736;-66
2021/11/02 18:07:24;;;;;;;2.25;0.80;;;20.90;58.70;;;;;;4968993;28;90962;-65
2021/11/02 18:09:50;;;;;;;2.30;0.98;;;20.90;58.70;;;;;;4989131;28;88347;-64
2021/11/02 18:12:19;;;;;;;4.20;0.80;;;20.90;58.70;;;;;;4970201;28;91229;-65
2021/11/02 18:14:45;;;;;;;2.60;0.93;;;21.00;58.70;;;;;;4989236;28;87925;-65
2021/11/02 18:17:11;;;;;;;2.22;0.90;;;21.00;58.60;;;;;;4987432;28;88206;-65